Terminal Aerodrome Forecast
Issued by NWS Atlanta, GA

Current Version | Previous Version | Text Only | Print | Product List | Glossary On
Versions: 1 2 3 4 5 6 7 8 9 10 11 12 13 14 15 16 17 18 19 20 21 22 23 24 25 26 27 28 29 30 31 32 33 34 35 36 37 38 39 40 41 42 43 44 45 46 47
000
FTUS42 KFFC 160900 AAE
TAFATL
TAF AMD
KATL 160907Z 1609/1712 17003KT 4SM BR OVC004
      TEMPO 1609/1612 5SM -RA BR BKN005
     FM161200 24003KT 5SM BR VCSH BKN006
     FM161400 31007KT P6SM BKN015
     FM161600 32008KT P6SM SCT025 BKN040
     FM161800 33010KT P6SM SCT050 BKN100
     FM170200 35006KT P6SM SCT120 BKN250=

USA.gov is the U.S. government's official web portal to all federal, state and local government web resources and services.